Time;durP1;ratioP1;P1;durP2;ratioP2;P2;SDS_P1;SDS_P2;PMS_P1;PMS_P2;Temp;Humidity;BMP_temperature;BMP_pressure;BME280_temperature;BME280_humidity;BME280_pressure;Samples;Min_cycle;Max_cycle;Signal;HPM_P1;HPM_P2
2022/10/21 00:00:27;;;;;;;23.83;20.90;;;12.50;99.90;;;;;;5071956;28;20068;-82
2022/10/21 00:02:52;;;;;;;21.83;12.95;;;12.60;99.90;;;;;;5072149;28;20048;-82
2022/10/21 00:05:18;;;;;;;22.83;13.02;;;12.50;99.90;;;;;;5072291;28;20039;-82
2022/10/21 00:07:43;;;;;;;20.27;13.75;;;12.50;99.90;;;;;;5072399;28;20493;-82
2022/10/21 00:10:09;;;;;;;21.83;13.65;;;12.50;99.90;;;;;;5071882;28;20037;-82
2022/10/21 00:12:36;;;;;;;20.85;13.55;;;12.50;99.90;;;;;;5071610;28;20117;-82
2022/10/21 00:15:07;;;;;;;23.88;13.98;;;12.40;99.90;;;;;;5055300;28;20078;-82
2022/10/21 00:17:38;;;;;;;23.10;12.93;;;12.50;99.90;;;;;;5072132;28;20079;-82
2022/10/21 00:20:06;;;;;;;28.00;23.23;;;12.40;99.90;;;;;;5071864;28;20036;-82
2022/10/21 00:22:32;;;;;;;21.75;12.38;;;12.50;99.90;;;;;;5054890;28;20066;-82
2022/10/21 00:24:58;;;;;;;30.80;12.70;;;12.50;99.90;;;;;;5071699;28;20050;-82
2022/10/21 00:27:23;;;;;;;19.30;12.30;;;12.50;99.90;;;;;;5055173;28;20039;-82
2022/10/21 00:29:49;;;;;;;29.45;24.88;;;12.50;99.90;;;;;;5055361;28;20032;-82
2022/10/21 00:32:14;;;;;;;20.73;12.35;;;12.50;99.90;;;;;;5071205;28;20486;-82
2022/10/21 00:34:42;;;;;;;24.05;13.25;;;12.50;99.90;;;;;;5071608;28;20040;-82
2022/10/21 00:37:09;;;;;;;22.75;12.65;;;12.50;99.90;;;;;;5071530;28;20047;-82
2022/10/21 00:39:35;;;;;;;19.48;12.52;;;12.50;99.90;;;;;;5071514;28;20044;-82
2022/10/21 00:42:00;;;;;;;24.55;15.10;;;12.50;99.90;;;;;;5071290;28;20032;-82
2022/10/21 00:44:26;;;;;;;27.85;25.00;;;12.50;99.90;;;;;;5071198;28;20115;-82
2022/10/21 00:47:05;;;;;;;24.48;15.75;;;12.50;99.90;;;;;;5054522;28;20032;-82
2022/10/21 00:49:55;;;;;;;21.17;12.70;;;12.50;99.90;;;;;;5053157;28;20100;-82
2022/10/21 00:52:22;;;;;;;18.98;12.15;;;12.50;99.90;;;;;;5054312;28;20074;-82
2022/10/21 00:54:51;;;;;;;22.15;13.13;;;12.40;99.90;;;;;;5054380;28;20098;-82
2022/10/21 00:57:17;;;;;;;24.95;22.33;;;12.40;99.90;;;;;;5054537;28;20128;-82
2022/10/21 00:59:49;;;;;;;23.83;21.25;;;12.50;99.90;;;;;;5054151;28;20032;-82
2022/10/21 01:02:15;;;;;;;30.38;16.95;;;12.50;99.90;;;;;;5070997;28;20367;-82
2022/10/21 01:04:41;;;;;;;21.02;12.63;;;12.50;99.90;;;;;;5053766;28;20043;-82
2022/10/21 01:07:06;;;;;;;20.70;13.20;;;12.40;99.90;;;;;;5071413;28;20036;-82
2022/10/21 01:09:32;;;;;;;18.83;12.48;;;12.40;99.90;;;;;;5071254;28;20445;-82
2022/10/21 01:12:00;;;;;;;17.48;11.98;;;12.40;99.90;;;;;;5054626;28;20385;-82
2022/10/21 01:14:47;;;;;;;22.00;19.48;;;12.40;99.90;;;;;;5071510;28;20048;-82
2022/10/21 01:17:30;;;;;;;18.98;11.85;;;12.40;99.90;;;;;;5071425;28;20161;-82
2022/10/21 01:20:02;;;;;;;19.08;11.32;;;12.40;99.90;;;;;;5071487;28;20052;-82
2022/10/21 01:23:05;;;;;;;19.25;12.80;;;12.30;99.90;;;;;;5070779;28;20037;-82
2022/10/21 01:25:56;;;;;;;22.02;11.38;;;12.30;99.90;;;;;;5070887;28;20510;-82
2022/10/21 01:28:53;;;;;;;24.67;13.48;;;12.30;99.90;;;;;;5071077;28;20040;-82
2022/10/21 01:31:45;;;;;;;24.50;13.50;;;12.30;99.90;;;;;;5053806;28;20119;-82
2022/10/21 01:34:39;;;;;;;21.08;12.13;;;12.30;99.90;;;;;;5054547;28;20045;-82
2022/10/21 01:37:43;;;;;;;20.08;12.32;;;12.30;99.90;;;;;;5070825;28;20074;-82
2022/10/21 01:40:19;;;;;;;19.15;12.23;;;12.30;99.90;;;;;;5059809;28;20136;-82
2022/10/21 01:42:55;;;;;;;25.65;23.02;;;12.30;99.90;;;;;;5053977;28;20033;-82
2022/10/21 01:45:45;;;;;;;21.25;13.10;;;12.40;99.90;;;;;;5070708;28;20048;-82
2022/10/21 01:48:18;;;;;;;21.55;12.20;;;12.40;99.90;;;;;;5054372;28;20114;-82
2022/10/21 01:50:45;;;;;;;;;;;12.30;99.90;;;;;;5070943;28;20086;-82
2022/10/21 01:53:14;;;;;;;19.33;12.20;;;12.30;99.90;;;;;;5070511;28;19924;-82
2022/10/21 01:55:42;;;;;;;26.65;13.38;;;12.30;99.90;;;;;;5053927;28;20036;-82
2022/10/21 01:58:13;;;;;;;21.95;13.18;;;12.30;99.90;;;;;;5053873;28;20044;-82
2022/10/21 02:00:40;;;;;;;21.20;12.70;;;12.30;99.90;;;;;;5070648;28;20389;-82
2022/10/21 02:03:12;;;;;;;21.55;12.02;;;12.40;99.90;;;;;;5053763;28;20076;-82
2022/10/21 02:05:39;;;;;;;20.35;12.38;;;12.40;99.90;;;;;;5053816;28;20052;-82
2022/10/21 02:08:04;;;;;;;26.52;23.10;;;12.40;99.90;;;;;;5070301;28;20485;-82
2022/10/21 02:10:36;;;;;;;28.92;23.70;;;12.50;99.90;;;;;;5070720;28;20048;-82
2022/10/21 02:13:04;;;;;;;21.45;12.35;;;12.60;99.90;;;;;;5070161;28;20041;-82
2022/10/21 02:15:32;;;;;;;21.67;12.55;;;12.60;99.90;;;;;;5070002;28;20230;-82
2022/10/21 02:18:03;;;;;;;24.58;13.15;;;12.60;99.90;;;;;;5070355;28;20050;-82
2022/10/21 02:20:32;;;;;;;29.65;14.30;;;12.60;99.90;;;;;;5070314;28;20068;-82
2022/10/21 02:22:58;;;;;;;23.65;14.68;;;12.60;99.90;;;;;;5070258;28;20465;-82
2022/10/21 02:25:28;;;;;;;23.98;14.85;;;12.70;99.90;;;;;;5070504;28;20193;-82
2022/10/21 02:27:54;;;;;;;29.17;24.40;;;12.70;99.90;;;;;;5070122;28;20037;-82
2022/10/21 02:30:20;;;;;;;22.08;13.52;;;12.80;99.90;;;;;;5053174;28;20076;-82
2022/10/21 02:33:27;;;;;;;21.77;13.60;;;12.80;99.90;;;;;;5069811;28;20036;-82
2022/10/21 02:36:06;;;;;;;22.70;11.05;;;12.80;99.90;;;;;;5000822;28;20463;-82
2022/10/21 02:39:02;;;;;;;22.75;12.98;;;12.80;99.90;;;;;;5069719;28;20502;-82
2022/10/21 02:41:29;;;;;;;22.35;13.25;;;12.80;99.90;;;;;;5066673;28;20517;-82
2022/10/21 02:44:03;;;;;;;24.85;14.82;;;12.80;99.90;;;;;;5053547;28;20367;-82
2022/10/21 02:46:36;;;;;;;18.92;12.45;;;12.90;99.90;;;;;;5069886;28;20569;-82
2022/10/21 02:49:02;;;;;;;23.25;12.57;;;12.90;99.90;;;;;;5052713;28;20044;-82
2022/10/21 02:51:28;;;;;;;22.73;13.45;;;12.90;99.90;;;;;;5069125;28;20047;-82
2022/10/21 02:53:53;;;;;;;27.42;23.05;;;12.90;99.90;;;;;;5070227;28;20429;-82
2022/10/21 02:56:19;;;;;;;25.92;22.00;;;13.00;99.90;;;;;;5069687;28;20131;-82
2022/10/21 02:58:44;;;;;;;23.42;12.75;;;13.00;99.90;;;;;;5070195;28;20044;-82
2022/10/21 03:01:10;;;;;;;24.90;22.20;;;13.00;99.90;;;;;;5069613;28;20516;-82
2022/10/21 03:03:35;;;;;;;20.60;13.38;;;13.10;99.90;;;;;;5053362;28;20491;-82
2022/10/21 03:06:01;;;;;;;21.05;12.65;;;13.00;99.90;;;;;;5069576;28;20510;-82
2022/10/21 03:08:26;;;;;;;22.98;14.07;;;13.00;99.90;;;;;;5069729;28;20123;-82
2022/10/21 03:10:53;;;;;;;26.73;23.85;;;13.00;99.90;;;;;;5069617;28;20033;-82
2022/10/21 03:13:18;;;;;;;19.58;13.55;;;13.00;99.90;;;;;;5069533;28;20041;-82
2022/10/21 03:15:44;;;;;;;21.50;14.05;;;13.00;99.90;;;;;;5053010;28;20051;-82
2022/10/21 03:18:09;;;;;;;21.80;13.45;;;13.00;99.90;;;;;;5068943;28;20036;-82
2022/10/21 03:20:35;;;;;;;25.25;22.63;;;13.00;99.90;;;;;;5069924;28;20406;-82
2022/10/21 03:23:00;;;;;;;21.30;13.63;;;13.00;99.90;;;;;;5069368;28;20520;-82
2022/10/21 03:25:26;;;;;;;20.75;13.40;;;13.00;99.90;;;;;;5069565;28;20040;-82
2022/10/21 03:27:52;;;;;;;25.95;22.88;;;13.00;99.90;;;;;;5071544;28;20170;-82
2022/10/21 03:30:18;;;;;;;24.88;21.95;;;13.00;99.90;;;;;;5072171;28;20048;-82
2022/10/21 03:32:43;;;;;;;20.48;12.90;;;13.00;99.90;;;;;;5072448;28;20036;-82
2022/10/21 03:35:09;;;;;;;18.48;12.75;;;13.00;99.90;;;;;;5056512;28;20041;-82
2022/10/21 03:37:34;;;;;;;22.88;11.65;;;12.90;99.90;;;;;;5073214;28;20090;-82
2022/10/21 03:40:00;;;;;;;18.13;11.50;;;12.90;99.90;;;;;;5072955;28;20106;-82
2022/10/21 03:42:27;;;;;;;18.45;12.38;;;12.90;99.90;;;;;;5072590;28;20041;-82
2022/10/21 03:44:53;;;;;;;23.02;13.13;;;12.90;99.90;;;;;;5056096;28;20143;-82
2022/10/21 03:47:18;;;;;;;21.33;13.20;;;12.80;99.90;;;;;;5073022;28;20083;-82
2022/10/21 03:49:44;;;;;;;22.90;20.42;;;12.80;99.90;;;;;;5072753;28;20490;-82
2022/10/21 03:52:09;;;;;;;29.10;23.48;;;12.90;99.90;;;;;;5072238;28;20123;-82
2022/10/21 03:54:35;;;;;;;19.02;12.57;;;12.90;99.90;;;;;;5073112;28;20041;-82
2022/10/21 03:57:00;;;;;;;21.02;12.68;;;12.90;99.90;;;;;;5072630;28;20449;-82
2022/10/21 03:59:26;;;;;;;25.85;22.90;;;12.80;99.90;;;;;;5072513;28;20425;-82
2022/10/21 04:01:51;;;;;;;24.05;21.55;;;12.90;99.90;;;;;;5071810;28;20028;-82
2022/10/21 04:04:17;;;;;;;22.13;12.73;;;12.90;99.90;;;;;;5073829;28;20065;-82
2022/10/21 04:06:42;;;;;;;17.30;10.98;;;12.90;99.90;;;;;;5072140;28;20497;-82
2022/10/21 04:09:08;;;;;;;25.83;22.23;;;12.90;99.90;;;;;;5072353;28;20085;-82
2022/10/21 04:11:34;;;;;;;24.45;21.95;;;12.90;99.90;;;;;;5071842;28;20075;-82
2022/10/21 04:13:59;;;;;;;23.05;20.67;;;13.00;99.90;;;;;;5072529;28;20044;-82
2022/10/21 04:16:25;;;;;;;17.80;10.55;;;13.00;99.90;;;;;;5072415;28;20379;-82
2022/10/21 04:18:50;;;;;;;20.63;10.93;;;12.90;99.90;;;;;;5072366;28;20432;-82
2022/10/21 04:21:16;;;;;;;19.42;11.50;;;12.80;99.90;;;;;;5072800;28;20497;-82
2022/10/21 04:23:42;;;;;;;19.67;11.90;;;12.80;99.90;;;;;;5072491;28;20043;-82
2022/10/21 04:26:08;;;;;;;19.08;11.27;;;12.80;99.90;;;;;;5072204;28;20667;-82
2022/10/21 04:28:34;;;;;;;18.02;11.52;;;12.70;99.90;;;;;;5072214;28;20043;-82
2022/10/21 04:30:59;;;;;;;18.05;10.68;;;12.70;99.90;;;;;;5055318;28;20032;-82
2022/10/21 04:33:25;;;;;;;20.95;12.05;;;12.70;99.90;;;;;;5072596;28;20551;-82
2022/10/21 04:35:53;;;;;;;16.88;11.35;;;12.70;99.90;;;;;;5072327;28;20097;-82
2022/10/21 04:38:18;;;;;;;21.33;12.98;;;12.70;99.90;;;;;;5072007;28;20084;-82
2022/10/21 04:40:44;;;;;;;22.75;20.02;;;12.70;99.90;;;;;;5071664;28;20082;-82
2022/10/21 04:43:09;;;;;;;23.50;21.08;;;12.70;99.90;;;;;;5073094;28;20448;-82
2022/10/21 04:45:38;;;;;;;22.02;11.02;;;12.80;99.90;;;;;;5071649;28;20494;-82
2022/10/21 04:48:05;;;;;;;23.65;11.65;;;12.70;99.90;;;;;;5071741;28;20044;-82
2022/10/21 04:50:31;;;;;;;26.02;12.95;;;12.70;99.90;;;;;;5054359;28;20076;-82
2022/10/21 04:52:56;;;;;;;17.88;11.15;;;12.60;99.90;;;;;;5055065;28;20521;-82
2022/10/21 04:55:22;;;;;;;19.83;11.65;;;12.60;99.90;;;;;;5054997;28;20072;-82
2022/10/21 04:57:48;;;;;;;20.13;11.75;;;12.60;99.90;;;;;;5054953;28;20055;-82
2022/10/21 05:00:14;;;;;;;22.77;20.10;;;12.60;99.90;;;;;;5054680;28;20032;-82
2022/10/21 05:02:39;;;;;;;23.48;14.30;;;12.60;99.90;;;;;;5071415;28;20033;-82
2022/10/21 05:05:05;;;;;;;21.05;11.50;;;12.70;99.90;;;;;;5054706;28;20554;-82
2022/10/21 05:07:31;;;;;;;17.08;9.93;;;12.60;99.90;;;;;;5054941;28;20401;-82
2022/10/21 05:09:56;;;;;;;26.33;22.05;;;12.60;99.90;;;;;;5071276;28;20482;-82
2022/10/21 05:12:22;;;;;;;23.77;21.08;;;12.70;99.90;;;;;;5070906;28;20040;-82
2022/10/21 05:14:47;;;;;;;20.38;13.10;;;12.70;99.90;;;;;;5054462;28;20036;-82
2022/10/21 05:17:13;;;;;;;23.27;11.48;;;12.70;99.90;;;;;;5071421;28;20044;-82
2022/10/21 05:19:38;;;;;;;22.50;11.55;;;12.70;99.90;;;;;;5071039;28;20045;-82
2022/10/21 05:22:04;;;;;;;23.63;21.08;;;12.70;99.90;;;;;;5070780;28;20036;-82
2022/10/21 05:24:29;;;;;;;23.23;20.33;;;12.70;99.90;;;;;;5071084;28;20039;-82
2022/10/21 05:26:55;;;;;;;19.05;11.05;;;12.70;99.90;;;;;;5070965;28;20051;-82
2022/10/21 05:29:20;;;;;;;19.30;11.27;;;12.70;99.90;;;;;;5054232;28;20032;-82
2022/10/21 05:31:46;;;;;;;23.67;21.05;;;12.70;99.90;;;;;;5070944;28;20040;-82
2022/10/21 05:34:12;;;;;;;18.58;11.38;;;12.70;99.90;;;;;;5070809;28;20485;-82
2022/10/21 05:36:37;;;;;;;17.92;11.50;;;12.70;99.90;;;;;;5070578;28;20043;-82
2022/10/21 05:39:03;;;;;;;18.83;11.98;;;12.60;99.90;;;;;;5053857;28;20418;-82
2022/10/21 05:41:28;;;;;;;22.67;11.55;;;12.60;99.90;;;;;;5069927;28;20051;-82
2022/10/21 05:43:54;;;;;;;21.20;12.45;;;12.60;99.90;;;;;;5053817;28;20409;-82
2022/10/21 05:46:19;;;;;;;17.33;11.57;;;12.60;99.90;;;;;;5069962;28;20044;-82
2022/10/21 05:48:45;;;;;;;20.60;12.90;;;12.60;99.90;;;;;;5070726;28;20090;-82
2022/10/21 05:51:10;;;;;;;20.95;12.68;;;12.50;99.90;;;;;;5068992;28;20044;-82
2022/10/21 05:53:38;;;;;;;23.70;14.00;;;12.50;99.90;;;;;;5069919;28;20032;-82
2022/10/21 05:56:06;;;;;;;20.48;13.80;;;12.50;99.90;;;;;;5070516;28;20044;-82
2022/10/21 05:58:33;;;;;;;17.27;11.02;;;12.50;99.90;;;;;;5053821;28;20075;-82
2022/10/21 06:01:00;;;;;;;18.83;12.15;;;12.50;99.90;;;;;;5069676;28;20086;-82
2022/10/21 06:03:28;;;;;;;22.25;12.48;;;12.40;99.90;;;;;;5070486;28;20032;-82
2022/10/21 06:05:58;;;;;;;20.90;11.55;;;12.40;99.90;;;;;;5069793;28;20098;-82
2022/10/21 06:08:24;;;;;;;19.00;11.38;;;12.40;99.90;;;;;;5069797;28;20462;-81
2022/10/21 06:10:59;;;;;;;25.33;20.63;;;12.40;99.90;;;;;;5069526;28;20041;-82
2022/10/21 06:13:24;;;;;;;23.38;20.80;;;12.50;99.90;;;;;;5069696;28;20045;-82
2022/10/21 06:15:50;;;;;;;19.98;12.82;;;12.50;99.90;;;;;;5070128;28;20132;-82
2022/10/21 06:18:15;;;;;;;17.80;11.13;;;12.50;99.90;;;;;;5070302;28;20072;-82
2022/10/21 06:20:41;;;;;;;23.20;19.98;;;12.40;99.90;;;;;;5070529;28;20075;-82
2022/10/21 06:23:06;;;;;;;22.38;20.00;;;12.50;99.90;;;;;;5069445;28;20477;-82
2022/10/21 06:25:32;;;;;;;17.45;11.88;;;12.50;99.90;;;;;;5053515;28;20051;-82
2022/10/21 06:27:57;;;;;;;18.88;10.70;;;12.50;99.90;;;;;;5070254;28;20166;-82
2022/10/21 06:30:23;;;;;;;16.70;10.20;;;12.40;99.90;;;;;;5070197;28;20033;-82
2022/10/21 06:32:49;;;;;;;18.58;11.48;;;12.40;99.90;;;;;;5053566;28;20086;-82
2022/10/21 06:35:14;;;;;;;24.88;22.20;;;12.40;99.90;;;;;;5070453;28;20045;-82
2022/10/21 06:37:40;;;;;;;17.20;10.75;;;12.40;99.90;;;;;;5069970;28;20464;-82
2022/10/21 06:40:06;;;;;;;20.27;11.27;;;12.40;99.90;;;;;;5053287;28;20051;-82
2022/10/21 06:42:31;;;;;;;18.75;11.45;;;12.30;99.90;;;;;;5053387;28;20383;-82
2022/10/21 06:44:57;;;;;;;24.88;21.35;;;12.40;99.90;;;;;;5053345;28;20040;-82
2022/10/21 06:47:22;;;;;;;17.42;10.43;;;12.40;99.90;;;;;;5070102;28;20036;-82
2022/10/21 06:49:48;;;;;;;18.02;10.70;;;12.40;99.90;;;;;;5053387;28;20040;-82
2022/10/21 06:52:13;;;;;;;20.15;11.40;;;12.40;99.90;;;;;;5069855;28;20037;-82
2022/10/21 06:54:39;;;;;;;20.70;11.00;;;12.40;99.90;;;;;;5069975;28;20036;-82
2022/10/21 06:57:04;;;;;;;20.27;11.88;;;12.40;99.90;;;;;;5069804;28;20037;-82
2022/10/21 06:59:30;;;;;;;17.08;9.95;;;12.40;99.90;;;;;;5070279;28;20044;-82
2022/10/21 07:01:55;;;;;;;17.88;11.23;;;12.40;99.90;;;;;;5071994;28;20043;-82
2022/10/21 07:04:21;;;;;;;23.77;20.02;;;12.50;99.90;;;;;;5074134;28;20724;-82
2022/10/21 07:06:47;;;;;;;21.15;18.95;;;12.50;99.90;;;;;;5056967;28;20422;-82
2022/10/21 07:09:13;;;;;;;17.35;11.00;;;12.60;99.90;;;;;;5073350;28;20037;-82
2022/10/21 07:11:39;;;;;;;18.75;11.02;;;12.60;99.90;;;;;;5056743;28;20086;-82
2022/10/21 07:14:04;;;;;;;18.92;10.93;;;12.60;99.90;;;;;;5071915;28;20703;-82
2022/10/21 07:16:33;;;;;;;22.38;19.92;;;12.60;99.90;;;;;;5055628;28;20409;-82
2022/10/21 07:18:58;;;;;;;18.58;10.38;;;12.70;99.90;;;;;;5073143;28;20044;-82
2022/10/21 07:21:26;;;;;;;18.20;10.15;;;12.70;99.90;;;;;;5072670;28;20049;-82
2022/10/21 07:23:54;;;;;;;20.02;10.82;;;12.70;99.90;;;;;;5056923;28;20069;-82
2022/10/21 07:26:21;;;;;;;21.65;18.92;;;12.80;99.90;;;;;;5073419;28;20049;-82
2022/10/21 07:28:47;;;;;;;23.45;19.40;;;12.90;99.90;;;;;;5073387;28;20085;-82
2022/10/21 07:31:14;;;;;;;18.85;11.40;;;13.00;99.90;;;;;;5072350;28;20501;-82
2022/10/21 07:33:40;;;;;;;22.08;11.23;;;13.00;99.90;;;;;;5073385;28;20037;-82
2022/10/21 07:36:13;;;;;;;22.38;12.18;;;13.00;99.90;;;;;;5056487;28;20394;-82
2022/10/21 07:38:42;;;;;;;18.20;11.60;;;13.00;99.90;;;;;;5072823;28;20046;-83
2022/10/21 07:41:13;;;;;;;23.75;21.00;;;13.10;99.90;;;;;;5056052;28;20516;-82
2022/10/21 07:43:38;;;;;;;18.65;13.50;;;13.20;99.90;;;;;;5056523;28;20054;-83
2022/10/21 07:46:04;;;;;;;19.58;11.48;;;13.20;99.90;;;;;;5056421;28;20120;-82
2022/10/21 07:48:30;;;;;;;19.63;11.20;;;13.20;99.90;;;;;;5073015;28;20037;-82
2022/10/21 07:51:03;;;;;;;22.05;19.65;;;13.30;99.90;;;;;;5072479;28;20041;-82
2022/10/21 07:53:28;;;;;;;20.77;13.27;;;13.40;99.90;;;;;;5072780;28;20036;-82
2022/10/21 07:56:20;;;;;;;19.13;12.45;;;13.50;99.90;;;;;;5073196;28;20051;-82
2022/10/21 07:58:46;;;;;;;20.38;12.10;;;13.50;99.90;;;;;;5056120;28;20380;-82
2022/10/21 08:01:12;;;;;;;24.60;21.13;;;13.60;99.90;;;;;;5055782;28;20129;-82
2022/10/21 08:03:38;;;;;;;24.10;21.20;;;13.70;99.90;;;;;;5055888;28;20082;-82
2022/10/21 08:06:05;;;;;;;25.90;21.33;;;13.80;99.90;;;;;;5071873;28;20072;-83
2022/10/21 08:08:32;;;;;;;21.50;12.63;;;13.90;99.90;;;;;;5055005;28;20032;-83
2022/10/21 08:10:57;;;;;;;24.35;19.90;;;13.90;99.90;;;;;;5071580;28;20040;-83
2022/10/21 08:13:23;;;;;;;19.08;13.00;;;14.00;99.90;;;;;;5071731;28;20050;-83
2022/10/21 08:15:52;;;;;;;18.42;11.77;;;14.00;99.90;;;;;;5056116;28;20055;-83
2022/10/21 08:18:18;;;;;;;23.65;20.73;;;14.00;99.90;;;;;;5055972;28;20080;-82
2022/10/21 08:20:45;;;;;;;23.80;21.10;;;14.10;99.90;;;;;;5072223;28;20036;-83
2022/10/21 08:23:12;;;;;;;19.27;12.82;;;14.30;99.90;;;;;;5055736;28;20397;-82
2022/10/21 08:25:38;;;;;;;24.27;21.30;;;14.30;99.90;;;;;;5072394;28;20084;-83
2022/10/21 08:28:05;;;;;;;20.45;13.13;;;14.40;99.90;;;;;;5055565;28;20502;-83
2022/10/21 08:30:31;;;;;;;24.65;21.25;;;14.40;99.90;;;;;;5071770;28;20039;-82
2022/10/21 08:32:58;;;;;;;21.45;13.68;;;14.50;99.90;;;;;;5071729;28;20036;-83
2022/10/21 08:35:27;;;;;;;24.42;21.48;;;14.50;99.90;;;;;;5055017;28;20085;-82
2022/10/21 08:37:54;;;;;;;23.63;20.60;;;14.60;99.90;;;;;;5055405;28;20047;-83
2022/10/21 08:40:19;;;;;;;18.15;11.85;;;14.70;99.90;;;;;;5055208;28;20040;-82
2022/10/21 08:42:46;;;;;;;23.67;20.02;;;14.60;99.90;;;;;;5071956;28;20105;-83
2022/10/21 08:45:30;;;;;;;22.30;20.00;;;14.70;99.90;;;;;;5054845;28;20029;-83
2022/10/21 08:47:59;;;;;;;22.55;20.15;;;14.70;99.90;;;;;;5069042;28;20041;-83
2022/10/21 08:50:29;;;;;;;21.02;18.67;;;14.80;99.90;;;;;;5068381;28;20494;-83
2022/10/21 08:53:04;;;;;;;19.80;13.45;;;14.80;99.90;;;;;;5052007;28;20039;-83
2022/10/21 08:55:41;;;;;;;22.23;18.13;;;14.80;99.90;;;;;;5070998;28;20036;-83
2022/10/21 08:58:18;;;;;;;24.73;20.25;;;14.90;99.90;;;;;;5069057;28;20047;-83
2022/10/21 09:00:45;;;;;;;18.17;12.15;;;14.90;99.90;;;;;;5068666;28;20043;-82
2022/10/21 09:03:36;;;;;;;21.85;18.42;;;14.90;99.90;;;;;;5070816;28;20043;-82
2022/10/21 09:06:43;;;;;;;21.70;17.73;;;15.00;99.90;;;;;;5070586;28;20068;-82
2022/10/21 09:09:35;;;;;;;19.98;11.32;;;15.10;99.90;;;;;;4974286;28;20516;-83
2022/10/21 09:12:13;;;;;;;18.58;10.85;;;15.00;99.90;;;;;;5053832;28;20040;-83
2022/10/21 09:15:19;;;;;;;21.08;18.30;;;15.10;99.90;;;;;;5071085;28;20036;-83
2022/10/21 09:18:16;;;;;;;20.83;17.80;;;15.20;99.90;;;;;;5068355;28;20123;-83
2022/10/21 09:21:07;;;;;;;19.17;11.00;;;15.30;99.90;;;;;;5052367;28;20040;-83
2022/10/21 09:23:48;;;;;;;20.77;17.60;;;15.40;99.90;;;;;;5053581;28;20032;-82
2022/10/21 09:26:38;;;;;;;19.45;16.92;;;15.50;99.90;;;;;;5069382;28;20036;-82
2022/10/21 09:29:15;;;;;;;18.05;11.48;;;15.60;99.90;;;;;;5054479;28;20045;-82
2022/10/21 09:31:42;;;;;;;20.73;16.55;;;15.60;99.90;;;;;;5054152;28;20041;-82
2022/10/21 09:34:18;;;;;;;16.65;11.30;;;15.70;99.90;;;;;;5070954;28;20516;-83
2022/10/21 09:36:47;;;;;;;18.20;14.25;;;15.70;99.90;;;;;;5054306;28;20333;-83
2022/10/21 09:39:29;;;;;;;18.73;10.90;;;15.80;99.90;;;;;;5070933;28;20036;-83
2022/10/21 09:41:57;;;;;;;18.10;13.35;;;15.80;99.90;;;;;;5070698;28;20056;-83
2022/10/21 09:44:23;;;;;;;16.75;13.73;;;15.90;99.90;;;;;;5070970;28;20040;-83
2022/10/21 09:46:51;;;;;;;18.98;13.88;;;15.90;99.90;;;;;;5053976;28;20043;-83
2022/10/21 09:49:28;;;;;;;15.77;12.70;;;16.00;99.90;;;;;;5070984;28;20029;-83
2022/10/21 09:51:57;;;;;;;17.02;13.20;;;16.00;99.90;;;;;;5070317;28;20325;-83
2022/10/21 09:54:25;;;;;;;17.33;11.95;;;16.10;99.90;;;;;;5070708;28;20032;-83
2022/10/21 09:57:19;;;;;;;13.60;11.32;;;16.10;99.90;;;;;;5070690;28;20489;-83
2022/10/21 09:59:53;;;;;;;17.65;11.45;;;16.10;99.90;;;;;;5053829;28;20596;-83
2022/10/21 10:02:29;;;;;;;16.92;12.00;;;16.20;99.90;;;;;;5069451;28;20040;-83
2022/10/21 10:04:55;;;;;;;17.50;11.77;;;16.20;99.90;;;;;;5053958;28;20297;-83
2022/10/21 10:07:36;;;;;;;15.00;11.48;;;16.30;99.90;;;;;;5053519;28;20037;-83
2022/10/21 10:10:23;;;;;;;16.77;11.40;;;16.30;99.90;;;;;;5070426;28;20041;-83
2022/10/21 10:12:58;;;;;;;15.82;11.02;;;16.30;99.90;;;;;;5051812;28;20036;-83
2022/10/21 10:15:33;;;;;;;15.15;11.02;;;16.30;99.90;;;;;;5052559;28;20094;-83
2022/10/21 10:17:59;;;;;;;15.93;11.50;;;16.30;99.90;;;;;;5070354;28;20044;-83
2022/10/21 10:20:25;;;;;;;14.23;11.90;;;16.30;99.90;;;;;;5069439;28;20548;-83
2022/10/21 10:23:00;;;;;;;18.15;10.65;;;16.40;99.90;;;;;;5070161;28;20503;-83
2022/10/21 10:25:37;;;;;;;15.63;11.82;;;16.40;99.90;;;;;;5053419;28;20063;-83
2022/10/21 10:28:09;;;;;;;16.05;11.77;;;16.50;99.90;;;;;;5070189;28;20622;-83
2022/10/21 10:30:44;;;;;;;14.95;10.88;;;16.50;99.90;;;;;;5053451;28;20123;-83
2022/10/21 10:33:31;;;;;;;15.82;11.80;;;16.50;99.90;;;;;;5070119;28;20036;-83
2022/10/21 10:36:02;;;;;;;18.25;12.82;;;16.60;99.90;;;;;;5054287;28;20037;-83
2022/10/21 10:38:34;;;;;;;16.83;11.95;;;16.60;99.90;;;;;;5057949;28;20051;-83
2022/10/21 10:41:15;;;;;;;15.73;8.10;;;16.60;99.90;;;;;;5073925;28;20083;-83
2022/10/21 10:43:46;;;;;;;17.30;11.75;;;16.50;99.90;;;;;;5057297;28;20039;-83
2022/10/21 10:46:24;;;;;;;18.48;11.55;;;16.60;99.90;;;;;;5057314;28;20036;-83
2022/10/21 10:48:51;;;;;;;15.95;11.23;;;16.60;99.90;;;;;;5073904;28;20123;-83
2022/10/21 10:51:31;;;;;;;18.52;11.73;;;16.70;99.90;;;;;;5073213;28;20119;-83
2022/10/21 10:54:14;;;;;;;18.63;11.82;;;16.70;99.90;;;;;;5074632;28;20402;-83
2022/10/21 10:56:54;;;;;;;14.35;10.93;;;16.80;99.90;;;;;;5057179;28;20429;-83
2022/10/21 10:59:23;;;;;;;14.65;10.32;;;16.80;99.90;;;;;;5074134;28;20040;-83
2022/10/21 11:02:07;;;;;;;15.50;10.88;;;16.80;99.90;;;;;;5057008;28;20044;-83
2022/10/21 11:05:04;;;;;;;17.13;10.05;;;16.80;99.90;;;;;;5073935;28;20123;-83
2022/10/21 11:07:36;;;;;;;16.63;9.40;;;16.90;99.90;;;;;;5073966;28;20044;-83
2022/10/21 11:10:24;;;;;;;12.73;6.82;;;16.90;99.90;;;;;;5073017;28;20041;-83
2022/10/21 11:12:50;;;;;;;16.35;9.73;;;16.90;99.90;;;;;;5070742;28;20036;-83
2022/10/21 11:15:16;;;;;;;12.85;9.18;;;16.90;99.90;;;;;;5072921;28;20036;-83
2022/10/21 11:18:00;;;;;;;14.95;9.40;;;17.00;99.90;;;;;;5056652;28;20040;-83
2022/10/21 11:20:35;;;;;;;13.65;9.15;;;17.00;99.90;;;;;;5073030;28;20077;-83
2022/10/21 11:23:28;;;;;;;16.42;9.73;;;17.00;99.90;;;;;;5073013;28;20041;-83
2022/10/21 11:26:01;;;;;;;15.18;9.55;;;17.00;99.90;;;;;;5071057;28;20559;-83
2022/10/21 11:28:40;;;;;;;14.82;7.28;;;17.00;99.90;;;;;;5073201;28;20063;-83
2022/10/21 11:31:17;;;;;;;14.07;9.30;;;17.00;99.90;;;;;;5056050;28;20089;-83
2022/10/21 11:34:03;;;;;;;16.35;9.30;;;17.00;99.90;;;;;;5056987;28;20075;-83
2022/10/21 11:36:37;;;;;;;15.10;9.40;;;17.10;99.90;;;;;;5042959;28;20070;-83
2022/10/21 11:39:12;;;;;;;16.85;9.10;;;17.10;99.90;;;;;;5056491;28;20045;-83
2022/10/21 11:41:43;;;;;;;14.30;8.98;;;17.10;99.90;;;;;;5056343;28;20044;-83
2022/10/21 11:44:14;;;;;;;12.40;6.80;;;17.10;99.90;;;;;;5074253;28;20052;-84
2022/10/21 11:46:52;;;;;;;14.20;9.40;;;17.10;99.90;;;;;;5072035;28;20044;-83
2022/10/21 11:49:39;;;;;;;14.93;9.30;;;17.10;99.90;;;;;;5068455;28;20047;-83
2022/10/21 11:52:26;;;;;;;16.95;9.80;;;17.20;99.90;;;;;;5072334;28;20432;-83
2022/10/21 11:55:20;;;;;;;13.57;9.07;;;17.30;99.90;;;;;;5056189;28;20036;-83
2022/10/21 11:57:54;;;;;;;22.13;9.70;;;17.30;99.90;;;;;;5072965;28;20119;-83
2022/10/21 12:00:23;;;;;;;15.13;8.95;;;17.20;99.90;;;;;;5072789;28;20414;-83
2022/10/21 12:03:00;;;;;;;14.60;8.57;;;17.30;99.90;;;;;;5055587;28;20036;-83
2022/10/21 12:05:33;;;;;;;15.45;8.13;;;17.30;99.90;;;;;;5072614;28;20458;-83
2022/10/21 12:08:17;;;;;;;14.38;8.55;;;17.20;99.90;;;;;;5072618;28;20154;-83
2022/10/21 12:10:48;;;;;;;15.90;8.60;;;17.30;99.90;;;;;;5072857;28;20060;-83
2022/10/21 12:13:25;;;;;;;14.02;8.77;;;17.30;99.90;;;;;;5072465;28;20060;-83
2022/10/21 12:16:13;;;;;;;14.75;9.00;;;17.30;99.90;;;;;;5055799;28;20131;-83
2022/10/21 12:18:48;;;;;;;12.73;8.05;;;17.40;99.90;;;;;;5071886;28;20037;-83
2022/10/21 12:21:16;;;;;;;14.52;8.65;;;17.40;99.90;;;;;;5071327;28;20170;-83
2022/10/21 12:23:46;;;;;;;16.05;8.38;;;17.40;99.90;;;;;;5071946;28;20033;-83
2022/10/21 12:26:48;;;;;;;12.93;8.10;;;17.40;99.90;;;;;;5072155;28;20040;-83
2022/10/21 12:29:42;;;;;;;13.45;8.30;;;17.40;99.90;;;;;;5061613;28;20105;-83
2022/10/21 12:32:43;;;;;;;12.45;8.52;;;17.40;99.90;;;;;;5054896;28;20174;-83
2022/10/21 12:35:24;;;;;;;14.18;8.73;;;17.40;99.90;;;;;;5013786;28;20080;-83
2022/10/21 12:37:49;;;;;;;13.32;8.95;;;17.40;99.90;;;;;;5014084;28;20056;-83
2022/10/21 12:40:28;;;;;;;14.38;8.45;;;17.40;99.90;;;;;;5014606;28;20519;-83
2022/10/21 12:42:59;;;;;;;14.75;8.60;;;17.40;99.90;;;;;;4997760;28;20038;-83
2022/10/21 12:45:33;;;;;;;14.35;8.85;;;17.40;99.90;;;;;;4997937;28;20416;-83
2022/10/21 12:48:00;;;;;;;14.50;8.13;;;17.40;99.90;;;;;;4998054;28;20098;-83